createdAt,value
2019-05-13T00:00:35.081Z,2.30
2019-05-13T00:01:35.168Z,2.30
2019-05-13T00:02:35.258Z,2.20
2019-05-13T00:03:35.347Z,2.20
2019-05-13T00:04:35.465Z,2.30
2019-05-13T00:05:35.525Z,2.80
2019-05-13T00:06:49.956Z,2.20
2019-05-13T00:07:35.706Z,2.10
2019-05-13T00:08:35.795Z,2.10
2019-05-13T00:09:35.881Z,2.20
2019-05-13T00:10:35.979Z,2.10
2019-05-13T00:11:36.063Z,2.20
2019-05-13T00:12:36.143Z,2.30
2019-05-13T00:13:36.229Z,2.00
2019-05-13T00:14:36.322Z,2.10
2019-05-13T00:15:36.407Z,2.10
2019-05-13T00:16:36.496Z,2.30
2019-05-13T00:17:36.585Z,2.10
2019-05-13T00:18:36.675Z,2.00
2019-05-13T00:19:36.765Z,2.10
2019-05-13T00:20:36.865Z,2.00
2019-05-13T00:21:36.936Z,2.00
2019-05-13T00:22:37.028Z,2.20
2019-05-13T00:23:37.116Z,2.10
2019-05-13T00:24:37.204Z,1.80
2019-05-13T00:25:37.293Z,2.00
2019-05-13T00:26:37.381Z,2.50
2019-05-13T00:27:37.467Z,2.00
2019-05-13T00:28:37.555Z,2.20
2019-05-13T00:29:37.644Z,1.80
2019-05-13T00:30:37.731Z,2.10
2019-05-13T00:31:37.841Z,2.10
2019-05-13T00:32:37.928Z,2.20
2019-05-13T00:33:38.049Z,2.00
2019-05-13T00:34:38.107Z,2.40
2019-05-13T00:35:38.196Z,2.30
2019-05-13T00:36:38.315Z,2.20
2019-05-13T00:37:38.372Z,2.10
2019-05-13T00:38:38.458Z,2.30
2019-05-13T00:39:38.546Z,2.00
2019-05-13T00:40:38.635Z,2.70
2019-05-13T00:41:38.721Z,2.60
2019-05-13T00:42:38.816Z,2.30
2019-05-13T00:43:38.911Z,2.30
2019-05-13T00:44:38.993Z,2.30
2019-05-13T00:45:39.078Z,2.30
2019-05-13T00:46:39.157Z,2.10
2019-05-13T00:47:39.246Z,2.10
2019-05-13T00:48:39.332Z,2.40
2019-05-13T00:49:39.422Z,2.30
2019-05-13T00:50:39.510Z,2.40
2019-05-13T00:51:39.597Z,2.30
2019-05-13T00:52:39.683Z,2.40
2019-05-13T00:53:39.779Z,2.20
2019-05-13T00:54:39.861Z,2.20
2019-05-13T00:55:39.950Z,2.40
2019-05-13T00:56:40.037Z,2.10
2019-05-13T00:57:40.129Z,2.10
2019-05-13T00:58:40.215Z,2.20
2019-05-13T00:59:40.301Z,2.10
2019-05-13T01:00:40.390Z,2.40
2019-05-13T01:01:40.478Z,2.50
2019-05-13T01:02:40.598Z,2.50
2019-05-13T01:03:40.681Z,2.40
2019-05-13T01:04:40.769Z,2.40
2019-05-13T01:05:40.858Z,2.40
2019-05-13T01:06:43.376Z,2.40
2019-05-13T01:07:41.037Z,2.30
2019-05-13T01:08:41.167Z,2.30
2019-05-13T01:09:41.258Z,2.30
2019-05-13T01:10:41.355Z,2.30
2019-05-13T01:11:43.630Z,2.10
2019-05-13T01:12:43.811Z,2.30
2019-05-13T01:13:43.330Z,2.30
2019-05-13T01:14:43.194Z,2.20
2019-05-13T01:15:44.099Z,2.00
2019-05-13T01:16:44.084Z,2.30
2019-05-13T01:17:44.491Z,2.10
2019-05-13T01:18:43.243Z,2.30
2019-05-13T01:19:43.334Z,2.60
2019-05-13T01:20:43.690Z,2.50
2019-05-13T01:21:43.497Z,2.40
2019-05-13T01:22:44.050Z,2.20
2019-05-13T01:23:43.867Z,2.20
2019-05-13T01:24:44.184Z,2.30
2019-05-13T01:25:44.423Z,2.40
2019-05-13T01:26:43.838Z,2.30
2019-05-13T01:27:44.164Z,2.60
2019-05-13T01:28:43.620Z,2.30
2019-05-13T01:29:43.506Z,2.40
2019-05-13T01:30:43.831Z,2.00
2019-05-13T01:31:43.557Z,2.30
2019-05-13T01:32:44.838Z,2.50
2019-05-13T01:33:44.538Z,2.20
2019-05-13T01:34:44.323Z,2.20
2019-05-13T01:35:44.616Z,2.20
2019-05-13T01:36:44.655Z,2.10
2019-05-13T01:37:46.218Z,2.20
2019-05-13T01:38:43.836Z,2.60
2019-05-13T01:39:43.920Z,2.30
2019-05-13T01:40:44.217Z,2.40
2019-05-13T01:41:44.097Z,2.40
2019-05-13T01:42:44.592Z,2.50
2019-05-13T01:43:44.290Z,2.10
2019-05-13T01:44:44.360Z,1.90
2019-05-13T01:45:44.443Z,2.20
2019-05-13T01:46:44.520Z,2.30
2019-05-13T01:47:44.608Z,2.50
2019-05-13T01:48:44.694Z,2.20
2019-05-13T01:49:44.781Z,2.40
2019-05-13T01:50:44.869Z,1.90
2019-05-13T01:51:44.957Z,2.30
2019-05-13T01:52:45.045Z,1.80
2019-05-13T01:53:45.131Z,2.20
2019-05-13T01:54:45.215Z,2.30
2019-05-13T01:55:45.304Z,2.10
2019-05-13T01:56:45.397Z,2.50
2019-05-13T01:57:45.479Z,2.00
2019-05-13T01:58:45.564Z,2.20
2019-05-13T01:59:45.650Z,2.40
2019-05-13T02:00:45.740Z,2.00
2019-05-13T02:01:45.827Z,2.40
2019-05-13T02:02:45.913Z,2.20
2019-05-13T02:03:45.999Z,2.30
2019-05-13T02:04:46.110Z,2.10
2019-05-13T02:05:46.198Z,2.30
2019-05-13T02:06:46.288Z,2.00
2019-05-13T02:07:56.858Z,2.20
2019-05-13T02:08:46.461Z,2.00
2019-05-13T02:09:46.553Z,2.50
2019-05-13T02:10:46.642Z,2.40
2019-05-13T02:11:46.821Z,2.30
2019-05-13T02:12:46.820Z,2.20
2019-05-13T02:13:46.910Z,2.10
2019-05-13T02:14:46.991Z,2.10
2019-05-13T02:15:47.089Z,2.00
2019-05-13T02:16:47.171Z,2.30
2019-05-13T02:17:47.258Z,2.10
2019-05-13T02:18:47.345Z,2.50
2019-05-13T02:19:47.435Z,2.10
2019-05-13T02:20:47.522Z,2.00
2019-05-13T02:21:47.607Z,2.30
2019-05-13T02:22:47.694Z,2.40
2019-05-13T02:23:47.787Z,2.60
2019-05-13T02:24:47.859Z,2.40
2019-05-13T02:25:47.949Z,2.10
2019-05-13T02:26:48.049Z,2.60
2019-05-13T02:27:48.123Z,2.50
2019-05-13T02:28:48.210Z,2.40
2019-05-13T02:29:48.306Z,2.40
2019-05-13T02:30:48.396Z,2.40
2019-05-13T02:31:55.147Z,2.10
2019-05-13T02:32:48.572Z,2.60
2019-05-13T02:33:48.670Z,1.90
2019-05-13T02:34:48.742Z,2.50
2019-05-13T02:35:52.701Z,2.10
2019-05-13T02:36:48.920Z,2.60
2019-05-13T02:37:49.002Z,2.00
2019-05-13T02:38:49.090Z,2.80
2019-05-13T02:39:49.183Z,2.20
2019-05-13T02:40:52.407Z,2.30
2019-05-13T02:41:52.032Z,2.30
2019-05-13T02:42:52.165Z,2.20
2019-05-13T02:43:52.388Z,2.40
2019-05-13T02:44:52.764Z,2.10
2019-05-13T02:45:52.743Z,2.10
2019-05-13T02:46:52.306Z,2.30
2019-05-13T02:47:52.146Z,2.10
2019-05-13T02:48:52.772Z,2.20
2019-05-13T02:49:53.044Z,2.40
2019-05-13T02:50:52.950Z,2.50
2019-05-13T02:51:54.301Z,2.10
2019-05-13T02:52:53.058Z,2.00
2019-05-13T02:53:52.403Z,2.10
2019-05-13T02:54:52.769Z,2.10
2019-05-13T02:55:52.291Z,2.20
2019-05-13T02:56:52.699Z,2.40
2019-05-13T02:57:52.802Z,2.10
2019-05-13T02:58:52.662Z,2.00
2019-05-13T02:59:52.641Z,2.70
2019-05-13T03:00:53.212Z,2.30
2019-05-13T03:01:53.341Z,2.10
2019-05-13T03:02:52.462Z,2.30
2019-05-13T03:03:52.845Z,2.50
2019-05-13T03:04:52.353Z,2.30
2019-05-13T03:05:52.698Z,2.40
2019-05-13T03:06:52.173Z,2.20
2019-05-13T03:07:53.085Z,2.10
2019-05-13T03:08:54.523Z,2.40
2019-05-13T03:09:52.757Z,2.20
2019-05-13T03:10:53.048Z,2.20
2019-05-13T03:11:53.643Z,2.30
2019-05-13T03:12:53.398Z,2.20
2019-05-13T03:13:53.149Z,2.20
2019-05-13T03:14:53.345Z,2.20
2019-05-13T03:15:52.404Z,2.10
2019-05-13T03:16:52.740Z,2.30
2019-05-13T03:17:52.550Z,2.40
2019-05-13T03:18:52.603Z,2.20
2019-05-13T03:19:53.150Z,2.60
2019-05-13T03:20:53.141Z,2.00
2019-05-13T03:21:52.946Z,2.20
2019-05-13T03:22:53.068Z,2.20
2019-05-13T03:23:53.059Z,2.60
2019-05-13T03:24:53.158Z,2.50
2019-05-13T03:25:53.937Z,2.40
2019-05-13T03:26:53.604Z,2.40
2019-05-13T03:27:54.361Z,2.40
2019-05-13T03:28:53.513Z,2.40
2019-05-13T03:29:53.601Z,2.00
2019-05-13T03:30:56.169Z,2.20
2019-05-13T03:31:55.616Z,2.70
2019-05-13T03:33:01.178Z,2.20
2019-05-13T03:33:55.816Z,2.40
2019-05-13T03:34:56.548Z,2.30
2019-05-13T03:35:56.177Z,2.30
2019-05-13T03:36:56.575Z,2.20
2019-05-13T03:37:54.321Z,2.40
2019-05-13T03:39:04.549Z,2.50
2019-05-13T03:39:54.505Z,2.70
2019-05-13T03:40:54.575Z,2.40
2019-05-13T03:41:54.667Z,2.30
2019-05-13T03:42:54.756Z,2.20
2019-05-13T03:43:54.843Z,2.20
2019-05-13T03:44:54.930Z,2.20
2019-05-13T03:45:55.016Z,2.50
2019-05-13T03:46:55.112Z,2.40
2019-05-13T03:47:55.201Z,2.40
2019-05-13T03:48:55.284Z,3.00
2019-05-13T03:49:55.372Z,2.40
2019-05-13T03:50:55.461Z,2.20
2019-05-13T03:51:55.550Z,2.80
2019-05-13T03:52:55.646Z,2.50
2019-05-13T03:53:55.725Z,2.20
2019-05-13T03:54:55.812Z,2.70
2019-05-13T03:55:55.901Z,2.50
2019-05-13T03:56:55.994Z,2.50
2019-05-13T03:57:56.075Z,2.60
2019-05-13T03:58:56.166Z,2.10
2019-05-13T03:59:56.254Z,2.20
2019-05-13T04:00:56.344Z,2.20
2019-05-13T04:01:56.428Z,2.20
2019-05-13T04:02:56.519Z,2.50
2019-05-13T04:03:56.604Z,2.30
2019-05-13T04:04:59.192Z,2.30
2019-05-13T04:05:56.778Z,2.20
2019-05-13T04:06:56.868Z,2.50
2019-05-13T04:07:56.957Z,2.60
2019-05-13T04:09:20.023Z,2.10
2019-05-13T04:09:57.122Z,2.60
2019-05-13T04:10:57.214Z,2.50
2019-05-13T04:11:57.311Z,2.40
2019-05-13T04:12:57.388Z,2.50
2019-05-13T04:13:57.484Z,2.40
2019-05-13T04:14:57.568Z,2.40
2019-05-13T04:15:57.656Z,2.00
2019-05-13T04:16:57.744Z,2.40
2019-05-13T04:17:57.831Z,2.00
2019-05-13T04:18:57.921Z,2.60
2019-05-13T04:19:58.012Z,2.20
2019-05-13T04:20:58.105Z,2.70
2019-05-13T04:21:58.185Z,2.00
2019-05-13T04:22:58.278Z,2.20
2019-05-13T04:23:58.358Z,2.50
2019-05-13T04:24:58.452Z,2.10
2019-05-13T04:25:58.542Z,2.60
2019-05-13T04:26:58.632Z,2.10
2019-05-13T04:27:58.719Z,2.20
2019-05-13T04:28:58.808Z,2.50
2019-05-13T04:29:58.898Z,2.10
2019-05-13T04:30:58.988Z,2.50
2019-05-13T04:32:01.935Z,2.40
2019-05-13T04:33:01.960Z,2.80
2019-05-13T04:34:02.039Z,2.60
2019-05-13T04:34:59.340Z,3.10
2019-05-13T04:36:02.381Z,2.80
2019-05-13T04:37:02.121Z,3.10
2019-05-13T04:38:02.441Z,2.90
2019-05-13T04:39:03.022Z,2.60
2019-05-13T04:40:03.386Z,3.10
2019-05-13T04:41:03.144Z,2.80
2019-05-13T04:42:02.323Z,3.00
2019-05-13T04:43:02.917Z,3.10
2019-05-13T04:44:02.657Z,2.80
2019-05-13T04:45:02.947Z,2.90
2019-05-13T04:46:02.538Z,2.70
2019-05-13T04:47:03.545Z,2.50
2019-05-13T04:48:03.228Z,2.50
2019-05-13T04:49:02.196Z,2.30
2019-05-13T04:50:02.891Z,2.30
2019-05-13T04:51:02.996Z,2.80
2019-05-13T04:52:03.245Z,11.50
2019-05-13T04:53:03.163Z,14.80
2019-05-13T04:54:02.839Z,6.90
2019-05-13T04:55:03.302Z,3.80
2019-05-13T04:56:03.070Z,3.50
2019-05-13T04:57:02.914Z,2.30
2019-05-13T04:58:03.575Z,3.70
2019-05-13T04:59:02.991Z,4.60
2019-05-13T05:00:04.117Z,2.70
2019-05-13T05:01:08.103Z,2.70
2019-05-13T05:02:04.971Z,3.00
2019-05-13T05:03:03.400Z,10.90
2019-05-13T05:04:03.450Z,12.00
2019-05-13T05:05:03.253Z,18.10
2019-05-13T05:06:03.291Z,12.20
2019-05-13T05:07:03.111Z,12.00
2019-05-13T05:08:03.113Z,9.30
2019-05-13T05:09:03.305Z,8.20
2019-05-13T05:10:17.268Z,7.50
2019-05-13T05:11:02.681Z,7.00
2019-05-13T05:12:02.640Z,6.90
2019-05-13T05:13:02.726Z,5.60
2019-05-13T05:14:02.940Z,4.30
2019-05-13T05:15:03.075Z,3.90
2019-05-13T05:16:03.093Z,3.60
2019-05-13T05:17:03.511Z,3.20
2019-05-13T05:18:03.171Z,2.60
2019-05-13T05:19:03.261Z,2.90
2019-05-13T05:20:03.945Z,2.90
2019-05-13T05:21:03.437Z,3.50
2019-05-13T05:22:03.574Z,3.40
2019-05-13T05:23:03.608Z,3.10
2019-05-13T05:24:03.695Z,2.80
2019-05-13T05:25:03.788Z,3.30
2019-05-13T05:26:03.875Z,2.80
2019-05-13T05:27:03.981Z,3.20
2019-05-13T05:28:04.062Z,3.20
2019-05-13T05:29:04.133Z,3.20
2019-05-13T05:30:04.240Z,3.40
2019-05-13T05:31:04.331Z,3.70
2019-05-13T05:32:04.421Z,3.50
2019-05-13T05:33:04.509Z,2.80
2019-05-13T05:34:06.765Z,3.70
2019-05-13T05:35:04.707Z,3.00
2019-05-13T05:36:04.796Z,2.80
2019-05-13T05:37:04.885Z,2.80
2019-05-13T05:38:04.974Z,3.10
2019-05-13T05:39:05.066Z,3.30
2019-05-13T05:40:05.161Z,3.60
2019-05-13T05:41:05.247Z,2.90
2019-05-13T05:42:05.335Z,2.80
2019-05-13T05:43:05.431Z,2.60
2019-05-13T05:44:05.522Z,2.50
2019-05-13T05:45:05.609Z,2.60
2019-05-13T05:46:05.709Z,2.80
2019-05-13T05:47:05.794Z,2.40
2019-05-13T05:48:05.872Z,2.30
2019-05-13T05:49:05.978Z,3.00
2019-05-13T05:50:06.069Z,2.50
2019-05-13T05:51:06.161Z,2.60
2019-05-13T05:52:06.256Z,2.10
2019-05-13T05:53:06.344Z,2.20
2019-05-13T05:54:06.447Z,2.10
2019-05-13T05:55:06.543Z,2.60
2019-05-13T05:56:06.634Z,2.30
2019-05-13T05:57:06.725Z,2.30
2019-05-13T05:58:06.819Z,2.10
2019-05-13T05:59:06.911Z,2.20
2019-05-13T06:00:07.006Z,2.30
2019-05-13T06:01:07.129Z,2.30
2019-05-13T06:02:07.177Z,2.70
2019-05-13T06:03:07.273Z,2.00
2019-05-13T06:04:07.367Z,2.20
2019-05-13T06:05:07.465Z,2.40
2019-05-13T06:06:07.565Z,2.40
2019-05-13T06:07:07.667Z,2.30
2019-05-13T06:08:07.764Z,2.10
2019-05-13T06:09:07.870Z,2.60
2019-05-13T06:10:07.952Z,2.60
2019-05-13T06:11:08.048Z,2.00
2019-05-13T06:12:08.143Z,2.90
2019-05-13T06:13:08.278Z,2.30
2019-05-13T06:14:08.321Z,2.10
2019-05-13T06:15:08.434Z,2.30
2019-05-13T06:16:08.535Z,1.90
2019-05-13T06:17:08.627Z,2.00
2019-05-13T06:18:08.736Z,2.40
2019-05-13T06:19:08.825Z,2.20
2019-05-13T06:20:08.946Z,2.20
2019-05-13T06:21:09.017Z,2.50
2019-05-13T06:22:09.115Z,2.10
2019-05-13T06:23:11.334Z,2.10
2019-05-13T06:24:11.511Z,2.50
2019-05-13T06:25:14.135Z,2.70
2019-05-13T06:26:12.428Z,2.10
2019-05-13T06:27:11.716Z,2.60
2019-05-13T06:28:12.230Z,2.40
2019-05-13T06:29:11.651Z,2.70
2019-05-13T06:30:12.401Z,2.30
2019-05-13T06:31:12.253Z,2.30
2019-05-13T06:32:19.119Z,2.10
2019-05-13T06:33:12.015Z,2.30
2019-05-13T06:34:12.519Z,2.50
2019-05-13T06:35:11.481Z,2.80
2019-05-13T06:36:11.350Z,2.40
2019-05-13T06:37:11.403Z,2.00
2019-05-13T06:38:11.848Z,2.30
2019-05-13T06:39:12.374Z,2.20
2019-05-13T06:40:12.370Z,2.60
2019-05-13T06:41:14.331Z,2.00
2019-05-13T06:42:11.620Z,2.40
2019-05-13T06:43:12.048Z,2.40
2019-05-13T06:44:12.127Z,2.70
2019-05-13T06:45:12.393Z,2.60
2019-05-13T06:46:12.385Z,2.70
2019-05-13T06:47:11.628Z,2.40
2019-05-13T06:48:11.891Z,2.60
2019-05-13T06:49:12.273Z,2.60
2019-05-13T06:50:11.895Z,2.50
2019-05-13T06:51:11.982Z,2.60
2019-05-13T06:52:12.160Z,2.60
2019-05-13T06:53:12.739Z,2.60
2019-05-13T06:54:12.267Z,2.70
2019-05-13T06:55:12.364Z,2.80
2019-05-13T06:56:12.462Z,2.90
2019-05-13T06:57:13.346Z,2.80
2019-05-13T06:58:12.651Z,2.90
2019-05-13T06:59:12.749Z,2.70
2019-05-13T07:00:12.844Z,2.70
2019-05-13T07:01:12.939Z,2.80
2019-05-13T07:02:13.033Z,2.50
2019-05-13T07:03:13.126Z,2.80
2019-05-13T07:04:13.234Z,2.70
2019-05-13T07:05:13.319Z,2.60
2019-05-13T07:06:13.420Z,2.90
2019-05-13T07:07:17.055Z,2.60
2019-05-13T07:08:13.614Z,2.70
2019-05-13T07:09:13.710Z,2.50
2019-05-13T07:10:13.807Z,3.00
2019-05-13T07:11:21.047Z,2.90
2019-05-13T07:12:13.993Z,2.90
2019-05-13T07:13:14.085Z,2.50
2019-05-13T07:14:14.188Z,2.80
2019-05-13T07:15:14.285Z,3.00
2019-05-13T07:16:14.385Z,2.80
2019-05-13T07:17:14.505Z,3.20
2019-05-13T07:18:16.329Z,3.20
2019-05-13T07:19:14.689Z,2.60
2019-05-13T07:20:14.782Z,2.80
2019-05-13T07:21:14.879Z,3.10
2019-05-13T07:22:14.969Z,2.80
2019-05-13T07:23:15.065Z,3.00
2019-05-13T07:24:15.161Z,2.80
2019-05-13T07:25:15.255Z,2.80
2019-05-13T07:26:15.348Z,3.10
2019-05-13T07:27:15.438Z,2.80
2019-05-13T07:28:15.554Z,3.20
2019-05-13T07:29:15.950Z,2.90
2019-05-13T07:30:15.720Z,3.60
2019-05-13T07:31:15.816Z,3.10
2019-05-13T07:32:15.909Z,2.90
2019-05-13T07:33:16.007Z,2.60
2019-05-13T07:34:16.099Z,2.80
2019-05-13T07:35:16.198Z,3.00
2019-05-13T07:36:16.281Z,3.00
2019-05-13T07:37:16.378Z,2.70
2019-05-13T07:38:16.471Z,2.50
2019-05-13T07:39:16.569Z,3.10
2019-05-13T07:40:16.660Z,3.30
2019-05-13T07:41:16.752Z,2.90
2019-05-13T07:42:16.843Z,3.00
2019-05-13T07:43:16.936Z,2.90
2019-05-13T07:44:17.034Z,2.70
2019-05-13T07:45:17.131Z,3.60
2019-05-13T07:46:17.221Z,3.30
2019-05-13T07:47:17.320Z,3.00
2019-05-13T07:48:21.166Z,3.80
2019-05-13T07:49:17.500Z,4.00
2019-05-13T07:50:17.595Z,4.20
2019-05-13T07:51:17.687Z,4.60
2019-05-13T07:52:17.783Z,4.20
2019-05-13T07:53:19.179Z,3.10
2019-05-13T07:54:17.970Z,3.10
2019-05-13T07:55:18.062Z,3.20
2019-05-13T07:56:18.161Z,3.20
2019-05-13T07:57:18.251Z,2.90
2019-05-13T07:58:18.413Z,2.70
2019-05-13T07:59:18.441Z,3.10
2019-05-13T08:00:18.554Z,2.70
2019-05-13T08:01:18.627Z,2.80
2019-05-13T08:02:21.531Z,2.60
2019-05-13T08:03:21.245Z,2.90
2019-05-13T08:04:22.883Z,2.60
2019-05-13T08:05:19.006Z,2.50
2019-05-13T08:06:21.744Z,2.50
2019-05-13T08:07:19.197Z,2.20
2019-05-13T08:08:21.883Z,2.70
2019-05-13T08:09:21.596Z,2.70
2019-05-13T08:10:21.819Z,3.10
2019-05-13T08:11:22.172Z,3.00
2019-05-13T08:12:21.583Z,2.70
2019-05-13T08:13:22.276Z,2.50
2019-05-13T08:14:21.781Z,2.50
2019-05-13T08:15:22.207Z,2.90
2019-05-13T08:16:22.274Z,2.50
2019-05-13T08:17:22.457Z,2.40
2019-05-13T08:18:22.062Z,2.70
2019-05-13T08:19:21.820Z,2.40
2019-05-13T08:20:22.133Z,2.40
2019-05-13T08:21:21.504Z,2.70
2019-05-13T08:22:22.132Z,2.40
2019-05-13T08:23:21.684Z,3.00
2019-05-13T08:24:22.654Z,2.20
2019-05-13T08:25:22.299Z,2.40
2019-05-13T08:26:21.675Z,2.80
2019-05-13T08:27:30.057Z,2.50
2019-05-13T08:28:22.580Z,2.20
2019-05-13T08:29:21.637Z,2.80
2019-05-13T08:30:22.722Z,2.80
2019-05-13T08:31:21.776Z,2.40
2019-05-13T08:32:22.212Z,2.60
2019-05-13T08:33:22.670Z,2.40
2019-05-13T08:34:22.583Z,2.70
2019-05-13T08:35:22.586Z,2.50
2019-05-13T08:36:23.477Z,2.40
2019-05-13T08:37:22.014Z,2.40
2019-05-13T08:38:23.008Z,2.30
2019-05-13T08:39:26.954Z,2.50
2019-05-13T08:40:23.421Z,2.30
2019-05-13T08:41:23.476Z,2.60
2019-05-13T08:42:23.552Z,2.10
2019-05-13T08:43:22.708Z,2.10
2019-05-13T08:44:22.729Z,2.30
2019-05-13T08:45:22.768Z,2.40
2019-05-13T08:46:22.885Z,2.30
2019-05-13T08:47:22.973Z,2.80
2019-05-13T08:48:23.064Z,2.50
2019-05-13T08:49:23.155Z,3.80
2019-05-13T08:50:23.250Z,2.90
2019-05-13T08:51:23.340Z,2.00
2019-05-13T08:52:23.439Z,2.60
2019-05-13T08:53:23.530Z,2.30
2019-05-13T08:54:23.629Z,2.60
2019-05-13T08:55:23.722Z,2.20
2019-05-13T08:56:23.814Z,2.40
2019-05-13T08:57:23.907Z,2.30
2019-05-13T08:58:24.001Z,2.50
2019-05-13T08:59:24.094Z,2.10
2019-05-13T09:00:24.185Z,2.10
2019-05-13T09:01:24.281Z,2.50
2019-05-13T09:02:24.376Z,2.20
2019-05-13T09:03:24.467Z,2.30
2019-05-13T09:04:24.560Z,2.00
2019-05-13T09:05:24.655Z,2.40
2019-05-13T09:06:24.745Z,2.10
2019-05-13T09:07:24.851Z,2.10
2019-05-13T09:08:24.953Z,2.40
2019-05-13T09:09:25.038Z,2.10
2019-05-13T09:10:25.137Z,2.00
2019-05-13T09:11:25.224Z,1.90
2019-05-13T09:12:32.075Z,1.90
2019-05-13T09:13:25.413Z,2.00
2019-05-13T09:14:25.497Z,1.80
2019-05-13T09:15:25.613Z,2.10
2019-05-13T09:16:25.685Z,1.90
2019-05-13T09:17:25.781Z,2.00
2019-05-13T09:18:25.872Z,2.00
2019-05-13T09:19:25.968Z,1.70
2019-05-13T09:20:26.082Z,2.00
2019-05-13T09:21:26.174Z,1.80
2019-05-13T09:22:26.268Z,1.80
2019-05-13T09:23:26.363Z,1.80
2019-05-13T09:24:34.147Z,1.90
2019-05-13T09:25:26.551Z,2.00
2019-05-13T09:26:26.642Z,2.20
2019-05-13T09:27:26.728Z,1.80
2019-05-13T09:28:26.822Z,1.80
2019-05-13T09:29:26.920Z,2.00
2019-05-13T09:30:27.460Z,2.20
2019-05-13T09:31:27.111Z,1.70
2019-05-13T09:32:27.198Z,1.90
2019-05-13T09:33:27.294Z,2.00
2019-05-13T09:34:27.394Z,1.80
2019-05-13T09:35:27.485Z,1.80
2019-05-13T09:36:27.572Z,1.90
2019-05-13T09:37:27.677Z,2.10
2019-05-13T09:38:27.772Z,2.00
2019-05-13T09:39:27.866Z,1.70
2019-05-13T09:40:27.960Z,2.00
2019-05-13T09:41:28.050Z,2.00
2019-05-13T09:42:28.142Z,1.90
2019-05-13T09:43:28.238Z,2.00
2019-05-13T09:44:28.333Z,1.70
2019-05-13T09:45:28.425Z,1.70
2019-05-13T09:46:28.534Z,1.90
2019-05-13T09:47:28.626Z,1.90
2019-05-13T09:48:28.718Z,1.80
2019-05-13T09:49:28.820Z,1.60
2019-05-13T09:50:33.190Z,1.80
2019-05-13T09:51:29.012Z,1.80
2019-05-13T09:52:31.719Z,1.80
2019-05-13T09:53:29.201Z,1.60
2019-05-13T09:54:32.869Z,1.60
2019-05-13T09:55:31.800Z,1.50
2019-05-13T09:56:31.710Z,1.60
2019-05-13T09:57:31.970Z,1.70
2019-05-13T09:58:32.781Z,1.90
2019-05-13T09:59:31.894Z,1.70
2019-05-13T10:00:32.188Z,1.50
2019-05-13T10:01:32.038Z,1.60
2019-05-13T10:02:32.073Z,1.70
2019-05-13T10:03:32.909Z,1.70
2019-05-13T10:04:31.865Z,1.60
2019-05-13T10:05:31.666Z,2.10
2019-05-13T10:06:32.727Z,1.70
2019-05-13T10:07:31.872Z,1.60
2019-05-13T10:08:32.701Z,1.90
2019-05-13T10:09:32.631Z,1.60
2019-05-13T10:10:31.920Z,1.60
2019-05-13T10:11:30.916Z,2.00
2019-05-13T10:12:31.958Z,2.00
2019-05-13T10:13:31.652Z,1.50
2019-05-13T10:14:32.648Z,1.80
2019-05-13T10:15:32.561Z,1.60
2019-05-13T10:16:31.675Z,1.50
2019-05-13T10:17:31.924Z,1.50
2019-05-13T10:18:32.692Z,1.40
2019-05-13T10:19:32.396Z,1.30
2019-05-13T10:20:32.265Z,1.50
2019-05-13T10:21:32.612Z,1.20
2019-05-13T10:22:32.208Z,1.30
2019-05-13T10:23:32.926Z,1.40
2019-05-13T10:24:32.895Z,1.20
2019-05-13T10:25:32.238Z,1.40
2019-05-13T10:26:32.390Z,1.80
2019-05-13T10:27:32.782Z,1.60
2019-05-13T10:28:32.525Z,1.30
2019-05-13T10:29:32.623Z,1.30
2019-05-13T10:30:32.716Z,1.60
2019-05-13T10:31:32.809Z,1.50
2019-05-13T10:32:32.925Z,1.40
2019-05-13T10:33:33.029Z,1.50
2019-05-13T10:34:33.117Z,1.20
2019-05-13T10:35:33.210Z,1.50
2019-05-13T10:36:33.296Z,1.40
2019-05-13T10:37:33.398Z,1.30
2019-05-13T10:38:33.497Z,1.50
2019-05-13T10:39:33.590Z,1.70
2019-05-13T10:40:33.684Z,1.60
2019-05-13T10:41:33.799Z,1.60
2019-05-13T10:42:33.871Z,1.50
2019-05-13T10:43:40.156Z,1.30
2019-05-13T10:44:34.060Z,1.30
2019-05-13T10:45:34.155Z,1.70
2019-05-13T10:46:34.248Z,1.60
2019-05-13T10:47:34.344Z,1.50
2019-05-13T10:48:34.435Z,1.20
2019-05-13T10:49:34.535Z,1.50
2019-05-13T10:50:34.626Z,1.20
2019-05-13T10:51:34.726Z,1.20
2019-05-13T10:52:34.821Z,1.30
2019-05-13T10:53:34.916Z,1.20
2019-05-13T10:54:35.008Z,1.30
2019-05-13T10:55:35.104Z,1.20
2019-05-13T10:56:35.196Z,1.30
2019-05-13T10:57:35.293Z,1.30
2019-05-13T10:58:35.390Z,1.60
2019-05-13T10:59:35.489Z,1.30
2019-05-13T11:00:35.578Z,1.30
2019-05-13T11:01:35.675Z,1.30
2019-05-13T11:02:35.763Z,1.40
2019-05-13T11:03:35.871Z,1.30
2019-05-13T11:04:35.957Z,1.40
2019-05-13T11:05:41.079Z,1.20
2019-05-13T11:06:36.167Z,1.50
2019-05-13T11:07:36.248Z,1.20
2019-05-13T11:08:36.349Z,1.30
2019-05-13T11:09:36.453Z,1.30
2019-05-13T11:10:36.538Z,1.40
2019-05-13T11:11:36.641Z,1.60
2019-05-13T11:12:36.720Z,1.30
2019-05-13T11:13:54.047Z,1.30
2019-05-13T11:14:36.922Z,1.40
2019-05-13T11:15:41.127Z,1.30
2019-05-13T11:16:37.125Z,1.40
2019-05-13T11:17:37.203Z,1.30
2019-05-13T11:18:37.313Z,1.30
2019-05-13T11:19:37.423Z,1.30
2019-05-13T11:20:37.497Z,1.60
2019-05-13T11:21:37.591Z,1.30
2019-05-13T11:22:37.679Z,1.30
2019-05-13T11:23:37.772Z,1.40
2019-05-13T11:24:37.871Z,1.20
2019-05-13T11:25:37.967Z,1.40
2019-05-13T11:26:38.061Z,1.50
2019-05-13T11:27:38.153Z,1.30
2019-05-13T11:28:38.255Z,1.50
2019-05-13T11:29:38.349Z,1.30
2019-05-13T11:30:38.445Z,1.30
2019-05-13T11:31:38.543Z,1.40
2019-05-13T11:32:38.640Z,1.20
2019-05-13T11:33:38.734Z,1.30
2019-05-13T11:34:41.215Z,1.30
2019-05-13T11:35:41.049Z,1.20
2019-05-13T11:36:42.726Z,1.10
2019-05-13T11:37:39.117Z,1.40
2019-05-13T11:38:39.225Z,1.30
2019-05-13T11:39:39.310Z,1.10
2019-05-13T11:40:39.406Z,1.20
2019-05-13T11:41:42.465Z,1.50
2019-05-13T11:42:41.999Z,1.30
2019-05-13T11:43:41.441Z,1.20
2019-05-13T11:44:40.060Z,1.30
2019-05-13T11:45:42.065Z,1.20
2019-05-13T11:46:42.501Z,1.20
2019-05-13T11:47:41.533Z,1.30
2019-05-13T11:48:42.622Z,1.20
2019-05-13T11:49:42.580Z,1.10
2019-05-13T11:50:42.917Z,1.10
2019-05-13T11:51:42.619Z,1.30
2019-05-13T11:52:42.504Z,1.30
2019-05-13T11:53:41.668Z,1.20
2019-05-13T11:54:42.500Z,1.20
2019-05-13T11:55:42.506Z,1.20
2019-05-13T11:56:48.469Z,1.10
2019-05-13T11:57:44.450Z,1.20
2019-05-13T11:58:43.041Z,1.10
2019-05-13T11:59:43.047Z,1.40
2019-05-13T12:00:42.698Z,1.10
2019-05-13T12:01:42.712Z,1.00
2019-05-13T12:02:42.536Z,1.30
2019-05-13T12:03:43.431Z,1.20
2019-05-13T12:04:43.214Z,1.10
2019-05-13T12:05:42.215Z,1.30
2019-05-13T12:06:48.548Z,1.10
2019-05-13T12:07:42.101Z,1.10
2019-05-13T12:08:49.820Z,1.20
2019-05-13T12:09:42.186Z,1.10
2019-05-13T12:10:43.918Z,1.10
2019-05-13T12:11:42.373Z,1.30
2019-05-13T12:12:43.903Z,1.40
2019-05-13T12:13:42.757Z,1.20
2019-05-13T12:14:56.883Z,1.30
2019-05-13T12:15:49.439Z,1.30
2019-05-13T12:16:42.847Z,1.20
2019-05-13T12:17:43.128Z,1.10
2019-05-13T12:18:43.903Z,1.30
2019-05-13T12:19:43.146Z,1.40
2019-05-13T12:20:43.290Z,1.30
2019-05-13T12:21:46.703Z,1.20
2019-05-13T12:22:43.420Z,1.30
2019-05-13T12:23:43.508Z,1.20
2019-05-13T12:24:43.605Z,1.20
2019-05-13T12:25:43.979Z,1.30
2019-05-13T12:26:43.815Z,1.40
2019-05-13T12:27:43.893Z,1.40
2019-05-13T12:28:43.991Z,1.40
2019-05-13T12:29:44.089Z,1.80
2019-05-13T12:30:44.214Z,1.20
2019-05-13T12:31:44.269Z,1.30
2019-05-13T12:32:44.363Z,1.20
2019-05-13T12:33:44.458Z,1.30
2019-05-13T12:34:45.933Z,1.10
2019-05-13T12:35:44.746Z,1.30
2019-05-13T12:36:44.718Z,1.00
2019-05-13T12:37:44.815Z,1.10
2019-05-13T12:38:44.916Z,1.10
2019-05-13T12:39:45.002Z,1.10
2019-05-13T12:40:45.097Z,1.20
2019-05-13T12:41:45.192Z,1.40
2019-05-13T12:42:47.285Z,1.40
2019-05-13T12:43:45.389Z,1.50
2019-05-13T12:45:00.439Z,1.60
2019-05-13T12:45:45.579Z,1.40
2019-05-13T12:46:50.149Z,1.40
2019-05-13T12:47:45.760Z,1.20
2019-05-13T12:48:45.868Z,1.20
2019-05-13T12:49:45.956Z,1.10
2019-05-13T12:50:46.045Z,1.30
2019-05-13T12:51:46.143Z,1.50
2019-05-13T12:52:46.254Z,1.40
2019-05-13T12:53:46.351Z,1.30
2019-05-13T12:54:46.452Z,1.40
2019-05-13T12:55:52.740Z,1.40
2019-05-13T12:56:46.642Z,1.60
2019-05-13T12:57:46.739Z,1.40
2019-05-13T12:58:46.846Z,1.50
2019-05-13T12:59:46.928Z,1.60
2019-05-13T13:00:47.027Z,1.30
2019-05-13T13:01:47.122Z,1.60
2019-05-13T13:02:51.525Z,1.40
2019-05-13T13:03:47.334Z,1.30
2019-05-13T13:05:09.278Z,1.20
2019-05-13T13:05:47.526Z,1.50
2019-05-13T13:06:47.618Z,1.60
2019-05-13T13:08:13.644Z,1.40
2019-05-13T13:08:49.883Z,1.10
2019-05-13T13:09:47.898Z,1.30
2019-05-13T13:10:48.035Z,1.20
2019-05-13T13:11:48.101Z,1.30
2019-05-13T13:12:48.196Z,1.40
2019-05-13T13:13:59.800Z,1.40
2019-05-13T13:14:48.394Z,1.40
2019-05-13T13:15:48.873Z,1.40
2019-05-13T13:16:48.582Z,1.30
2019-05-13T13:17:48.679Z,1.20
2019-05-13T13:18:51.921Z,1.20
2019-05-13T13:19:48.906Z,1.40